createdAt,value
2019-01-16T00:00:19.230Z,71.83
2019-01-16T00:03:05.041Z,71.54
2019-01-16T00:05:58.842Z,70.95
2019-01-16T00:08:40.985Z,70.89
2019-01-16T00:11:36.321Z,70.98
2019-01-16T00:14:28.657Z,70.79
2019-01-16T00:17:17.273Z,70.91
2019-01-16T00:20:19.826Z,70.57
2019-01-16T00:23:11.929Z,70.33
2019-01-16T00:26:20.496Z,69.74
2019-01-16T00:29:11.649Z,69.88
2019-01-16T00:32:00.637Z,69.76
2019-01-16T00:34:50.079Z,70.14
2019-01-16T00:37:46.878Z,70.22
2019-01-16T00:40:40.372Z,70.20
2019-01-16T00:43:29.882Z,70.49
2019-01-16T00:46:19.242Z,70.73
2019-01-16T00:49:13.157Z,70.46
2019-01-16T00:52:03.618Z,70.99
2019-01-16T00:54:54.371Z,70.74
2019-01-16T00:58:03.188Z,71.03
2019-01-16T01:00:59.457Z,70.58
2019-01-16T01:03:44.322Z,70.47
2019-01-16T01:06:26.821Z,69.93
2019-01-16T01:09:10.434Z,70.18
2019-01-16T01:11:58.562Z,69.96
2019-01-16T01:14:51.835Z,69.79
2019-01-16T01:17:36.126Z,69.87
2019-01-16T01:20:35.169Z,69.74
2019-01-16T01:23:24.527Z,69.62
2019-01-16T01:26:06.970Z,69.43
2019-01-16T01:28:57.525Z,68.88
2019-01-16T01:31:51.119Z,68.43
2019-01-16T01:34:37.023Z,68.67
2019-01-16T01:37:36.919Z,67.71
2019-01-16T01:40:27.835Z,67.60
2019-01-16T01:43:36.710Z,67.26
2019-01-16T01:46:25.761Z,67.50
2019-01-16T01:49:05.948Z,67.49
2019-01-16T01:51:55.162Z,67.32
2019-01-16T01:54:57.718Z,67.28
2019-01-16T01:57:51.483Z,66.81
2019-01-16T02:00:49.601Z,66.86
2019-01-16T02:03:52.452Z,67.42
2019-01-16T02:06:40.650Z,66.66
2019-01-16T02:09:23.921Z,67.44
2019-01-16T02:12:17.424Z,67.47
2019-01-16T02:15:02.031Z,67.26
2019-01-16T02:17:58.664Z,67.53
2019-01-16T02:20:46.803Z,67.54
2019-01-16T02:23:36.252Z,67.59
2019-01-16T02:26:27.007Z,67.42
2019-01-16T02:29:17.739Z,67.85
2019-01-16T02:32:11.015Z,67.84
2019-01-16T02:35:07.644Z,67.99
2019-01-16T02:37:58.135Z,67.84
2019-01-16T02:40:48.589Z,67.81
2019-01-16T02:43:48.190Z,67.81
2019-01-16T02:46:39.742Z,67.72
2019-01-16T02:49:30.331Z,67.97
2019-01-16T02:52:30.077Z,67.46
2019-01-16T02:55:18.890Z,66.87
2019-01-16T02:58:08.110Z,66.32
2019-01-16T03:01:10.611Z,66.82
2019-01-16T03:04:00.071Z,67.12
2019-01-16T03:06:50.825Z,67.49
2019-01-16T03:09:41.288Z,67.45
2019-01-16T03:12:30.766Z,67.53
2019-01-16T03:15:21.548Z,67.16
2019-01-16T03:18:12.031Z,67.78
2019-01-16T03:21:13.692Z,67.52
2019-01-16T03:24:07.236Z,67.69
2019-01-16T03:26:53.229Z,68.04
2019-01-16T03:29:49.583Z,67.72
2019-01-16T03:32:40.101Z,67.53
2019-01-16T03:35:24.604Z,67.51
2019-01-16T03:38:14.827Z,67.55
2019-01-16T03:40:59.761Z,67.76
2019-01-16T03:44:00.166Z,67.56
2019-01-16T03:46:53.524Z,67.49
2019-01-16T03:49:53.301Z,67.72
2019-01-16T03:52:46.531Z,67.25
2019-01-16T03:55:34.123Z,67.56
2019-01-16T03:58:21.700Z,67.72
2019-01-16T04:01:11.227Z,68.03
2019-01-16T04:04:20.288Z,68.13
2019-01-16T04:07:10.776Z,68.05
2019-01-16T04:10:10.338Z,67.92
2019-01-16T04:13:00.870Z,67.38
2019-01-16T04:16:03.344Z,67.50
2019-01-16T04:19:09.300Z,67.91
2019-01-16T04:22:05.522Z,68.19
2019-01-16T04:24:43.400Z,68.09
2019-01-16T04:27:26.696Z,68.39
2019-01-16T04:30:18.693Z,68.61
2019-01-16T04:33:01.545Z,68.79
2019-01-16T04:35:58.120Z,68.70
2019-01-16T04:38:48.586Z,69.13
2019-01-16T04:41:51.455Z,69.42
2019-01-16T04:44:40.801Z,70.14
2019-01-16T04:47:37.946Z,70.08
2019-01-16T04:50:20.103Z,70.43
2019-01-16T04:53:19.924Z,70.78
2019-01-16T04:56:16.750Z,71.21
2019-01-16T04:59:03.437Z,71.41
2019-01-16T05:02:06.060Z,71.44
2019-01-16T05:04:57.909Z,71.53
2019-01-16T05:07:55.167Z,71.71
2019-01-16T05:10:45.898Z,71.97
2019-01-16T05:13:39.225Z,72.09
2019-01-16T05:16:22.540Z,72.40
2019-01-16T05:19:25.051Z,72.33
2019-01-16T05:22:18.650Z,72.28
2019-01-16T05:25:08.386Z,71.80
2019-01-16T05:27:59.115Z,71.36
2019-01-16T05:30:55.382Z,71.34
2019-01-16T05:33:39.961Z,71.25
2019-01-16T05:36:33.722Z,71.40
2019-01-16T05:39:24.909Z,71.27
2019-01-16T05:42:15.397Z,71.44
2019-01-16T05:45:09.123Z,71.25
2019-01-16T05:47:58.777Z,71.35
2019-01-16T05:50:40.257Z,71.25
2019-01-16T05:53:34.022Z,71.27
2019-01-16T05:56:26.583Z,71.42
2019-01-16T05:59:26.186Z,71.54
2019-01-16T06:02:29.086Z,71.50
2019-01-16T06:05:11.608Z,71.24
2019-01-16T06:08:17.429Z,71.68
2019-01-16T06:11:14.911Z,71.54
2019-01-16T06:14:14.491Z,71.40
2019-01-16T06:17:11.554Z,71.20
2019-01-16T06:20:12.749Z,71.46
2019-01-16T06:23:11.970Z,71.58
2019-01-16T06:26:17.812Z,71.49
2019-01-16T06:29:07.222Z,71.69
2019-01-16T06:32:04.103Z,71.95
2019-01-16T06:34:43.946Z,71.98
2019-01-16T06:37:50.132Z,71.93
2019-01-16T06:40:50.994Z,72.26
2019-01-16T06:43:46.679Z,72.35
2019-01-16T06:46:55.573Z,72.14
2019-01-16T06:49:46.346Z,72.17
2019-01-16T06:52:34.943Z,72.49
2019-01-16T06:55:44.599Z,72.85
2019-01-16T06:58:37.127Z,72.95
2019-01-16T07:01:36.727Z,72.79
2019-01-16T07:04:27.502Z,72.19
2019-01-16T07:07:16.855Z,71.90
2019-01-16T07:10:06.032Z,71.99
2019-01-16T07:13:08.848Z,71.92
2019-01-16T07:16:08.772Z,71.92
2019-01-16T07:18:53.526Z,72.03
2019-01-16T07:21:52.429Z,72.38
2019-01-16T07:24:57.899Z,72.74
2019-01-16T07:27:50.287Z,72.52
2019-01-16T07:30:59.070Z,72.51
2019-01-16T07:33:42.097Z,72.26
2019-01-16T07:36:31.485Z,72.20
2019-01-16T07:39:22.821Z,71.29
2019-01-16T07:42:12.977Z,71.43
2019-01-16T07:45:04.394Z,71.20
2019-01-16T07:48:01.237Z,71.35
2019-01-16T07:50:58.296Z,70.84
2019-01-16T07:53:39.621Z,70.61
2019-01-16T07:56:37.564Z,70.61
2019-01-16T07:59:27.591Z,70.33
2019-01-16T08:02:17.387Z,70.69
2019-01-16T08:05:07.131Z,70.17
2019-01-16T08:08:12.848Z,70.08
2019-01-16T08:11:00.321Z,69.96
2019-01-16T08:14:00.527Z,69.84
2019-01-16T08:17:06.861Z,69.70
2019-01-16T08:19:56.104Z,69.69
2019-01-16T08:22:45.623Z,69.78
2019-01-16T08:25:36.088Z,69.51
2019-01-16T08:28:26.781Z,69.23
2019-01-16T08:31:07.136Z,69.33
2019-01-16T08:34:14.264Z,69.21
2019-01-16T08:37:03.386Z,68.95
2019-01-16T08:39:53.130Z,68.23
2019-01-16T08:42:42.494Z,67.71
2019-01-16T08:45:39.861Z,67.56
2019-01-16T08:48:24.589Z,67.33
2019-01-16T08:51:38.292Z,66.89
2019-01-16T08:54:27.805Z,67.16
2019-01-16T08:57:12.239Z,66.89
2019-01-16T09:00:06.050Z,66.92
2019-01-16T09:03:06.518Z,66.38
2019-01-16T09:06:00.220Z,66.92
2019-01-16T09:08:49.225Z,66.31
2019-01-16T09:11:39.774Z,65.48
2019-01-16T09:14:30.216Z,65.61
2019-01-16T09:17:49.254Z,64.75
2019-01-16T09:20:40.108Z,65.46
2019-01-16T09:23:25.713Z,66.10
2019-01-16T09:26:10.447Z,65.81
2019-01-16T09:29:00.894Z,65.76
2019-01-16T09:31:50.960Z,65.61
2019-01-16T09:34:33.887Z,66.08
2019-01-16T09:37:36.483Z,66.37
2019-01-16T09:40:33.363Z,65.67
2019-01-16T09:43:22.615Z,65.60
2019-01-16T09:46:12.291Z,65.56
2019-01-16T09:49:13.732Z,65.81
2019-01-16T09:52:10.256Z,65.24
2019-01-16T09:55:18.324Z,65.74
2019-01-16T09:58:07.586Z,65.33
2019-01-16T10:01:16.530Z,66.09
2019-01-16T10:04:05.694Z,66.36
2019-01-16T10:07:08.288Z,65.53
2019-01-16T10:10:02.169Z,65.31
2019-01-16T10:12:52.310Z,65.62
2019-01-16T10:15:39.456Z,64.16
2019-01-16T10:18:42.222Z,65.15
2019-01-16T10:21:29.862Z,64.31
2019-01-16T10:24:19.239Z,63.48
2019-01-16T10:27:15.796Z,63.29
2019-01-16T10:30:06.268Z,63.48
2019-01-16T10:33:15.578Z,63.99
2019-01-16T10:35:55.803Z,64.80
2019-01-16T10:39:01.375Z,64.04
2019-01-16T10:41:57.726Z,63.37
2019-01-16T10:45:00.535Z,64.51
2019-01-16T10:48:01.064Z,63.34
2019-01-16T10:51:03.336Z,62.55
2019-01-16T10:53:41.375Z,62.96
2019-01-16T10:56:29.620Z,63.44
2019-01-16T10:59:23.102Z,62.77
2019-01-16T11:02:13.762Z,63.26
2019-01-16T11:05:04.167Z,63.25
2019-01-16T11:08:03.869Z,61.89
2019-01-16T11:10:54.311Z,62.80
2019-01-16T11:13:44.487Z,62.17
2019-01-16T11:16:34.107Z,62.12
2019-01-16T11:19:23.753Z,62.62
2019-01-16T11:22:14.059Z,62.47
2019-01-16T11:25:10.493Z,61.29
2019-01-16T11:28:08.294Z,62.04
2019-01-16T11:30:53.393Z,61.17
2019-01-16T11:33:46.905Z,60.73
2019-01-16T11:36:36.434Z,61.59
2019-01-16T11:39:36.493Z,61.54
2019-01-16T11:42:25.850Z,61.50
2019-01-16T11:45:15.230Z,61.40
2019-01-16T11:48:11.252Z,61.19
2019-01-16T11:51:00.324Z,61.93
2019-01-16T11:53:49.412Z,60.89
2019-01-16T11:56:53.575Z,61.74
2019-01-16T11:59:43.997Z,62.02
2019-01-16T12:02:30.335Z,61.56
2019-01-16T12:05:29.096Z,62.22
2019-01-16T12:08:18.182Z,61.79
2019-01-16T12:11:09.579Z,61.39
2019-01-16T12:14:04.248Z,61.13
2019-01-16T12:17:01.952Z,61.09
2019-01-16T12:19:52.665Z,61.05
2019-01-16T12:22:41.941Z,61.02
2019-01-16T12:25:41.687Z,60.40
2019-01-16T12:28:32.113Z,60.90
2019-01-16T12:31:15.879Z,60.26
2019-01-16T12:34:08.399Z,60.42
2019-01-16T12:37:14.155Z,60.11
2019-01-16T12:40:02.941Z,61.04
2019-01-16T12:42:57.445Z,61.15
2019-01-16T12:45:40.396Z,60.67
2019-01-16T12:48:32.007Z,60.28
2019-01-16T12:51:22.441Z,60.42
2019-01-16T12:54:08.597Z,60.01
2019-01-16T12:57:08.021Z,61.00
2019-01-16T13:00:10.524Z,61.10
2019-01-16T13:02:48.664Z,60.17
2019-01-16T13:05:39.159Z,61.07
2019-01-16T13:08:38.741Z,60.78
2019-01-16T13:11:39.902Z,61.14
2019-01-16T13:14:22.964Z,60.84
2019-01-16T13:17:16.415Z,61.17
2019-01-16T13:20:07.133Z,59.83
2019-01-16T13:22:53.399Z,60.57
2019-01-16T13:25:53.228Z,60.57
2019-01-16T13:28:48.914Z,60.37
2019-01-16T13:31:48.565Z,59.98
2019-01-16T13:34:45.258Z,59.96
2019-01-16T13:37:34.402Z,60.11
2019-01-16T13:40:28.392Z,60.89
2019-01-16T13:43:21.838Z,61.01
2019-01-16T13:46:13.839Z,60.11
2019-01-16T13:49:07.103Z,59.65
2019-01-16T13:52:18.884Z,59.40
2019-01-16T13:55:08.327Z,59.75
2019-01-16T13:58:02.743Z,60.03
2019-01-16T14:00:56.887Z,59.87
2019-01-16T14:03:53.223Z,59.88
2019-01-16T14:06:52.211Z,59.79
2019-01-16T14:09:48.863Z,59.24
2019-01-16T14:12:39.326Z,59.28
2019-01-16T14:15:40.606Z,59.50
2019-01-16T14:18:22.908Z,59.06
2019-01-16T14:21:12.310Z,59.77
2019-01-16T14:24:01.465Z,60.27
2019-01-16T14:26:57.886Z,60.23
2019-01-16T14:29:48.336Z,60.80
2019-01-16T14:32:37.897Z,60.12
2019-01-16T14:35:37.628Z,60.11
2019-01-16T14:38:30.846Z,60.17
2019-01-16T14:41:30.381Z,60.28
2019-01-16T14:44:31.545Z,60.57
2019-01-16T14:47:40.034Z,61.14
2019-01-16T14:50:29.438Z,61.01
2019-01-16T14:53:12.078Z,61.12
2019-01-16T14:55:56.307Z,61.17
2019-01-16T14:58:38.825Z,61.43
2019-01-16T15:01:27.889Z,62.71
2019-01-16T15:04:15.816Z,62.21
2019-01-16T15:06:57.999Z,62.35
2019-01-16T15:09:47.283Z,62.03
2019-01-16T15:12:36.445Z,62.42
2019-01-16T15:15:30.345Z,62.74
2019-01-16T15:18:19.483Z,63.23
2019-01-16T15:21:08.579Z,63.08
2019-01-16T15:23:54.418Z,63.54
2019-01-16T15:26:40.860Z,63.81
2019-01-16T15:29:34.350Z,63.48
2019-01-16T15:32:16.697Z,62.41
2019-01-16T15:35:01.675Z,62.78
2019-01-16T15:37:46.285Z,62.85
2019-01-16T15:40:34.603Z,63.15
2019-01-16T15:43:40.540Z,63.77
2019-01-16T15:46:35.013Z,64.20
2019-01-16T15:49:28.223Z,64.87
2019-01-16T15:52:16.320Z,64.97
2019-01-16T15:55:16.041Z,65.09
2019-01-16T15:57:57.270Z,65.18
2019-01-16T16:00:47.710Z,65.59
2019-01-16T16:03:35.866Z,65.42
2019-01-16T16:06:33.493Z,65.46
2019-01-16T16:09:45.411Z,65.49
2019-01-16T16:12:34.686Z,66.01
2019-01-16T16:15:15.851Z,66.56
2019-01-16T16:18:18.515Z,67.13
2019-01-16T16:21:16.480Z,67.96
2019-01-16T16:24:06.899Z,67.99
2019-01-16T16:26:56.291Z,68.20
2019-01-16T16:29:56.266Z,67.98
2019-01-16T16:32:56.882Z,67.92
2019-01-16T16:35:56.306Z,67.93
2019-01-16T16:38:54.569Z,68.05
2019-01-16T16:41:43.519Z,67.93
2019-01-16T16:44:26.731Z,67.75
2019-01-16T16:47:20.177Z,67.77
2019-01-16T16:50:16.582Z,67.45
2019-01-16T16:53:03.441Z,67.40
2019-01-16T16:55:46.190Z,67.13
2019-01-16T16:58:54.763Z,67.78
2019-01-16T17:01:42.061Z,68.40
2019-01-16T17:04:45.384Z,68.92
2019-01-16T17:07:48.202Z,68.61
2019-01-16T17:10:40.422Z,69.25
2019-01-16T17:13:30.886Z,69.80
2019-01-16T17:16:21.347Z,70.43
2019-01-16T17:19:17.863Z,70.76
2019-01-16T17:22:05.858Z,71.16
2019-01-16T17:24:55.164Z,71.41
2019-01-16T17:27:57.790Z,71.47
2019-01-16T17:30:47.267Z,71.53
2019-01-16T17:33:56.624Z,71.99
2019-01-16T17:36:47.476Z,72.00
2019-01-16T17:39:36.877Z,72.28
2019-01-16T17:42:35.607Z,72.29
2019-01-16T17:45:27.229Z,72.44
2019-01-16T17:48:21.169Z,72.47
2019-01-16T17:51:10.841Z,72.72
2019-01-16T17:54:00.097Z,72.94
2019-01-16T17:56:49.417Z,72.91
2019-01-16T17:59:47.299Z,72.84
2019-01-16T18:02:49.906Z,72.74
2019-01-16T18:05:46.634Z,72.73
2019-01-16T18:08:48.370Z,72.93
2019-01-16T18:11:45.439Z,73.08
2019-01-16T18:14:33.002Z,73.22
2019-01-16T18:17:33.126Z,73.22
2019-01-16T18:20:29.747Z,73.20
2019-01-16T18:23:11.470Z,73.41
2019-01-16T18:26:14.420Z,73.32
2019-01-16T18:29:08.295Z,73.57
2019-01-16T18:31:58.184Z,73.31
2019-01-16T18:34:51.894Z,73.61
2019-01-16T18:37:36.894Z,73.89
2019-01-16T18:40:23.616Z,73.98
2019-01-16T18:43:13.316Z,74.11
2019-01-16T18:46:03.138Z,74.43
2019-01-16T18:48:57.227Z,74.47
2019-01-16T18:51:46.781Z,74.45
2019-01-16T18:54:36.699Z,74.66
2019-01-16T18:57:42.808Z,74.68
2019-01-16T19:00:29.061Z,74.55
2019-01-16T19:03:19.762Z,74.35
2019-01-16T19:06:11.970Z,74.55
2019-01-16T19:09:01.471Z,74.82
2019-01-16T19:11:46.096Z,75.20
2019-01-16T19:14:35.436Z,75.25
2019-01-16T19:17:17.344Z,75.47
2019-01-16T19:20:15.879Z,75.45
2019-01-16T19:22:59.239Z,75.20
2019-01-16T19:25:52.991Z,74.87
2019-01-16T19:28:40.372Z,74.64
2019-01-16T19:31:31.759Z,74.97
2019-01-16T19:34:22.546Z,74.75
2019-01-16T19:37:11.988Z,74.97
2019-01-16T19:39:54.909Z,74.89
2019-01-16T19:42:49.189Z,74.70
2019-01-16T19:45:40.237Z,74.47
2019-01-16T19:48:30.961Z,74.25
2019-01-16T19:51:21.701Z,74.46
2019-01-16T19:54:15.448Z,74.84
2019-01-16T19:57:24.721Z,75.16
2019-01-16T20:00:07.906Z,75.36
2019-01-16T20:02:57.856Z,75.13
2019-01-16T20:06:08.640Z,74.88
2019-01-16T20:09:17.638Z,75.29
2019-01-16T20:12:22.790Z,75.46
2019-01-16T20:15:11.693Z,75.46
2019-01-16T20:18:01.319Z,75.32
2019-01-16T20:20:56.361Z,75.28
2019-01-16T20:23:46.024Z,75.81
2019-01-16T20:26:36.746Z,76.01
2019-01-16T20:29:24.719Z,75.60
2019-01-16T20:32:14.438Z,75.61
2019-01-16T20:35:09.902Z,75.47
2019-01-16T20:37:56.673Z,75.67
2019-01-16T20:40:47.356Z,75.80
2019-01-16T20:43:54.275Z,75.63
2019-01-16T20:46:43.990Z,75.64
2019-01-16T20:49:32.253Z,75.82
2019-01-16T20:52:22.940Z,75.74
2019-01-16T20:55:12.291Z,75.87
2019-01-16T20:58:10.806Z,75.71
2019-01-16T21:01:19.682Z,75.58
2019-01-16T21:04:08.999Z,75.82
2019-01-16T21:07:03.577Z,75.85
2019-01-16T21:10:09.524Z,75.95
2019-01-16T21:13:00.214Z,75.93
2019-01-16T21:15:57.813Z,76.00
2019-01-16T21:18:43.158Z,76.17
2019-01-16T21:21:32.559Z,76.24
2019-01-16T21:24:26.391Z,76.45
2019-01-16T21:27:32.240Z,76.57
2019-01-16T21:30:29.048Z,76.65
2019-01-16T21:33:16.705Z,76.70
2019-01-16T21:36:07.425Z,76.37
2019-01-16T21:39:13.278Z,76.51
2019-01-16T21:42:04.013Z,76.55
2019-01-16T21:45:03.975Z,76.48
2019-01-16T21:47:54.701Z,76.55
2019-01-16T21:50:46.456Z,76.61
2019-01-16T21:53:30.615Z,76.64
2019-01-16T21:56:36.484Z,76.61
2019-01-16T21:59:29.985Z,76.42
2019-01-16T22:05:34.301Z,76.44
2019-01-16T22:08:25.178Z,76.91
2019-01-16T22:11:08.951Z,76.77
2019-01-16T22:14:02.519Z,76.67
2019-01-16T22:17:09.806Z,76.76
2019-01-16T22:20:11.180Z,76.71
2019-01-16T22:23:06.798Z,76.34
2019-01-16T22:26:10.291Z,76.36
2019-01-16T22:29:12.422Z,76.44
2019-01-16T22:31:53.973Z,76.64
2019-01-16T22:34:43.372Z,76.88
2019-01-16T22:37:24.017Z,76.64
2019-01-16T22:40:10.820Z,76.67
2019-01-16T22:42:58.480Z,76.70
2019-01-16T22:46:12.793Z,76.90
2019-01-16T22:48:55.567Z,76.74
2019-01-16T22:51:43.504Z,76.81
2019-01-16T22:54:32.892Z,77.13
2019-01-16T22:57:21.514Z,77.15
2019-01-16T23:00:07.552Z,77.04
2019-01-16T23:02:51.424Z,77.08
2019-01-16T23:05:46.224Z,77.56
2019-01-16T23:08:34.788Z,77.67
2019-01-16T23:11:15.035Z,77.09
2019-01-16T23:14:05.743Z,76.79
2019-01-16T23:16:53.451Z,76.83
2019-01-16T23:19:34.191Z,76.93
2019-01-16T23:22:18.273Z,77.17
2019-01-16T23:25:18.329Z,77.15
2019-01-16T23:28:02.208Z,77.11
2019-01-16T23:30:52.570Z,76.85
2019-01-16T23:33:43.308Z,76.87
2019-01-16T23:36:36.829Z,76.34
2019-01-16T23:39:34.874Z,76.37
2019-01-16T23:42:37.488Z,76.83
2019-01-16T23:45:23.615Z,77.15
2019-01-16T23:48:20.367Z,76.98
2019-01-16T23:51:20.392Z,77.06
2019-01-16T23:54:23.134Z,77.04
2019-01-16T23:57:23.950Z,76.73
